Time;durP1;ratioP1;P1;durP2;ratioP2;P2;SDS_P1;SDS_P2;PMS_P1;PMS_P2;Temp;Humidity;BMP_temperature;BMP_pressure;BME280_temperature;BME280_humidity;BME280_pressure;Samples;Min_cycle;Max_cycle;Signal;HPM_P1;HPM_P2
2023/05/17 00:01:16;;;;;;;4.53;1.88;;;;;;;;;;5050882;28;20074;-78
2023/05/17 00:03:41;;;;;;;5.20;2.10;;;;;;;;;;5031103;28;20029;-77
2023/05/17 00:06:06;;;;;;;4.25;1.88;;;;;;;;;;5033969;28;20025;-78
2023/05/17 00:08:32;;;;;;;6.38;2.20;;;;;;;;;;5038785;28;20036;-78
2023/05/17 00:10:57;;;;;;;5.85;1.90;;;;;;;;;;5032481;28;20024;-77
2023/05/17 00:13:22;;;;;;;7.00;2.45;;;;;;;;;;5048109;28;20115;-77
2023/05/17 00:15:48;;;;;;;5.88;1.95;;;;;;;;;;5036789;28;20032;-77
2023/05/17 00:18:13;;;;;;;4.93;1.80;;;;;;;;;;5044655;28;20028;-77
2023/05/17 00:20:39;;;;;;;5.72;2.20;;;;;;;;;;5029236;28;20032;-76
2023/05/17 00:23:04;;;;;;;6.63;1.88;;;;;;;;;;5044501;28;20035;-77
2023/05/17 00:25:29;;;;;;;3.78;1.63;;;;;;;;;;5036777;28;20025;-77
2023/05/17 00:27:55;;;;;;;6.03;1.98;;;;;;;;;;5026753;28;20490;-77
2023/05/17 00:30:20;;;;;;;5.38;1.75;;;;;;;;;;5042436;28;20457;-77
2023/05/17 00:32:47;;;;;;;6.25;2.00;;;;;;;;;;5050591;28;20056;-77
2023/05/17 00:35:12;;;;;;;6.78;1.58;;;;;;;;;;5024494;28;20112;-77
2023/05/17 00:37:38;;;;;;;3.50;1.60;;;;;;;;;;5040836;28;20172;-78
2023/05/17 00:40:05;;;;;;;7.20;1.90;;;;;;;;;;5023940;28;20029;-76
2023/05/17 00:42:30;;;;;;;5.63;1.80;;;;;;;;;;5042118;28;20384;-78
2023/05/17 00:44:55;;;;;;;6.82;2.00;;;;;;;;;;5050834;28;20028;-78
2023/05/17 00:47:21;;;;;;;6.55;2.03;;;;;;;;;;5030450;28;20071;-77
2023/05/17 00:49:46;;;;;;;6.93;1.88;;;;;;;;;;5022507;28;20037;-77
2023/05/17 00:52:12;;;;;;;6.25;1.90;;;;;;;;;;5030486;28;20036;-77
2023/05/17 00:54:39;;;;;;;5.95;2.00;;;;;;;;;;5049798;28;20051;-78
2023/05/17 00:57:05;;;;;;;5.20;2.00;;;;;;;;;;5047711;28;20477;-75
2023/05/17 00:59:31;;;;;;;3.97;1.75;;;;;;;;;;5050626;28;20071;-77
2023/05/17 01:01:57;;;;;;;5.45;2.13;;;;;;;;;;5032304;28;20427;-77
2023/05/17 01:04:23;;;;;;;5.72;1.90;;;;;;;;;;5042284;28;20060;-78
2023/05/17 01:06:49;;;;;;;5.07;1.77;;;;;;;;;;5031803;28;20024;-78
2023/05/17 01:09:15;;;;;;;4.32;1.90;;;;;;;;;;5049062;28;20077;-78
2023/05/17 01:11:55;;;;;;;5.55;2.00;;;;;;;;;;5044924;28;20029;-78
2023/05/17 01:14:51;;;;;;;4.72;1.73;;;;;;;;;;5044092;28;20135;-76
2023/05/17 01:17:27;;;;;;;5.65;1.98;;;;;;;;;;5045291;28;20025;-78
2023/05/17 01:20:05;;;;;;;10.23;2.08;;;;;;;;;;5047352;28;20501;-78
2023/05/17 01:22:55;;;;;;;6.97;2.17;;;;;;;;;;5040539;28;20116;-78
2023/05/17 01:25:51;;;;;;;5.85;2.25;;;;;;;;;;5047245;28;20033;-78
2023/05/17 01:28:19;;;;;;;5.18;2.53;;;;;;;;;;5050320;28;20025;-77
2023/05/17 01:30:46;;;;;;;7.57;2.22;;;;;;;;;;5051391;28;20093;-77
2023/05/17 01:33:11;;;;;;;5.07;2.00;;;;;;;;;;5051009;28;20021;-77
2023/05/17 01:35:37;;;;;;;4.30;2.03;;;;;;;;;;5048459;28;20029;-77
2023/05/17 01:38:02;;;;;;;6.47;2.40;;;;;;;;;;5043546;28;20056;-77
2023/05/17 01:40:32;;;;;;;4.93;1.95;;;;;;;;;;5048430;28;20078;-77
2023/05/17 01:43:08;;;;;;;7.57;2.50;;;;;;;;;;5049653;28;20033;-78
2023/05/17 01:45:48;;;;;;;9.15;3.25;;;;;;;;;;5045916;28;20048;-78
2023/05/17 01:48:25;;;;;;;5.80;2.20;;;;;;;;;;5036587;28;20032;-77
2023/05/17 01:50:53;;;;;;;4.32;2.03;;;;;;;;;;5051622;28;20052;-78
2023/05/17 01:53:31;;;;;;;4.03;1.92;;;;;;;;;;5043182;28;20117;-77
2023/05/17 01:56:02;;;;;;;7.93;2.28;;;;;;;;;;5044314;28;20040;-77
2023/05/17 01:58:29;;;;;;;5.28;2.25;;;;;;;;;;5030121;28;20033;-77
2023/05/17 02:00:58;;;;;;;6.43;2.30;;;;;;;;;;5049572;28;20025;-75
2023/05/17 02:03:23;;;;;;;7.53;2.40;;;;;;;;;;5022175;28;20033;-77
2023/05/17 02:05:49;;;;;;;11.40;2.65;;;;;;;;;;5027278;28;20028;-77
2023/05/17 02:08:14;;;;;;;6.72;2.33;;;;;;;;;;5042827;28;20033;-78
2023/05/17 02:10:40;;;;;;;6.55;2.33;;;;;;;;;;5047158;28;20052;-78
2023/05/17 02:13:05;;;;;;;5.43;2.22;;;;;;;;;;5047677;28;20465;-77
2023/05/17 02:15:31;;;;;;;6.28;2.30;;;;;;;;;;5025292;28;20036;-78
2023/05/17 02:17:56;;;;;;;6.35;2.40;;;;;;;;;;5051372;28;20036;-77
2023/05/17 02:20:22;;;;;;;6.72;2.45;;;;;;;;;;5050239;28;20473;-77
2023/05/17 02:22:47;;;;;;;5.35;2.35;;;;;;;;;;5050058;28;20039;-78
2023/05/17 02:25:13;;;;;;;6.90;2.13;;;;;;;;;;5026664;28;20105;-78
2023/05/17 02:27:39;;;;;;;8.38;2.80;;;;;;;;;;5049752;28;20465;-78
2023/05/17 02:30:05;;;;;;;6.40;2.38;;;;;;;;;;5048525;28;20033;-76
2023/05/17 02:32:31;;;;;;;5.05;2.30;;;;;;;;;;5050743;28;20469;-74
2023/05/17 02:34:57;;;;;;;6.40;2.72;;;;;;;;;;5045808;28;20127;-75
2023/05/17 02:37:22;;;;;;;6.35;2.40;;;;;;;;;;5040751;28;20552;-74
2023/05/17 02:39:48;;;;;;;7.60;2.50;;;;;;;;;;5029895;28;20017;-74
2023/05/17 02:42:13;;;;;;;6.78;2.60;;;;;;;;;;5048020;28;20040;-74
2023/05/17 02:44:38;;;;;;;6.20;2.60;;;;;;;;;;5038202;28;20052;-74
2023/05/17 02:47:04;;;;;;;8.15;2.67;;;;;;;;;;5030884;28;20052;-74
2023/05/17 02:49:29;;;;;;;9.05;3.47;;;;;;;;;;5037015;28;20024;-75
2023/05/17 02:51:55;;;;;;;5.22;2.22;;;;;;;;;;5048116;28;20029;-74
2023/05/17 02:54:20;;;;;;;6.47;2.40;;;;;;;;;;5033327;28;20370;-74
2023/05/17 02:56:46;;;;;;;6.07;2.17;;;;;;;;;;5049055;28;20029;-74
2023/05/17 02:59:11;;;;;;;6.97;3.00;;;;;;;;;;5034639;28;20051;-74
2023/05/17 03:01:36;;;;;;;8.52;2.65;;;;;;;;;;5025594;28;20029;-74
2023/05/17 03:04:02;;;;;;;8.15;3.00;;;;;;;;;;5044768;28;20078;-74
2023/05/17 03:06:27;;;;;;;7.05;2.97;;;;;;;;;;5043525;28;20021;-74
2023/05/17 03:08:53;;;;;;;6.57;2.58;;;;;;;;;;5036694;28;20021;-74
2023/05/17 03:11:18;;;;;;;9.35;3.28;;;;;;;;;;5039606;28;20025;-74
2023/05/17 03:13:45;;;;;;;9.40;3.20;;;;;;;;;;5051117;28;20032;-76
2023/05/17 03:16:10;;;;;;;6.50;2.60;;;;;;;;;;5029324;28;20025;-74
2023/05/17 03:18:36;;;;;;;8.23;2.97;;;;;;;;;;5046598;28;20027;-74
2023/05/17 03:21:01;;;;;;;6.13;2.83;;;;;;;;;;5028524;28;20486;-76
2023/05/17 03:23:26;;;;;;;6.18;2.95;;;;;;;;;;5031257;28;20029;-74
2023/05/17 03:25:52;;;;;;;6.30;2.85;;;;;;;;;;5045851;28;20028;-74
2023/05/17 03:28:17;;;;;;;7.45;2.78;;;;;;;;;;5030952;28;20115;-73
2023/05/17 03:30:42;;;;;;;9.57;2.90;;;;;;;;;;5055813;28;20549;-74
2023/05/17 03:33:08;;;;;;;5.75;3.05;;;;;;;;;;5050661;28;20037;-74
2023/05/17 03:35:33;;;;;;;9.55;3.30;;;;;;;;;;5046152;28;20108;-74
2023/05/17 03:37:58;;;;;;;7.68;3.08;;;;;;;;;;5043655;28;20362;-74
2023/05/17 03:40:24;;;;;;;8.18;3.17;;;;;;;;;;5046132;28;20048;-75
2023/05/17 03:42:50;;;;;;;5.78;2.78;;;;;;;;;;5048860;28;20027;-73
2023/05/17 03:45:16;;;;;;;5.10;2.90;;;;;;;;;;5045905;28;20155;-74
2023/05/17 03:47:41;;;;;;;7.80;3.03;;;;;;;;;;5027806;28;20032;-74
2023/05/17 03:50:08;;;;;;;8.68;2.97;;;;;;;;;;5051788;28;20104;-74
2023/05/17 03:52:33;;;;;;;5.13;2.53;;;;;;;;;;5031141;28;20481;-74
2023/05/17 03:54:59;;;;;;;6.72;3.15;;;;;;;;;;5057804;28;20028;-73
2023/05/17 03:57:24;;;;;;;8.55;2.80;;;;;;;;;;5037593;28;20036;-74
2023/05/17 03:59:50;;;;;;;6.43;2.83;;;;;;;;;;5039942;28;20032;-74
2023/05/17 04:02:15;;;;;;;6.68;3.15;;;;;;;;;;5046015;28;20028;-74
2023/05/17 04:04:47;;;;;;;5.25;2.80;;;;;;;;;;5048086;28;20457;-75
2023/05/17 04:07:12;;;;;;;6.75;2.70;;;;;;;;;;5038704;28;20482;-74
2023/05/17 04:09:37;;;;;;;5.93;2.83;;;;;;;;;;5044064;28;20039;-75
2023/05/17 04:12:03;;;;;;;7.07;3.00;;;;;;;;;;5046411;28;20055;-74
2023/05/17 04:14:28;;;;;;;7.97;3.10;;;;;;;;;;5045641;28;20021;-73
2023/05/17 04:16:54;;;;;;;6.57;2.90;;;;;;;;;;5044327;28;20120;-75
2023/05/17 04:19:19;;;;;;;6.72;2.90;;;;;;;;;;5030305;28;20123;-73
2023/05/17 04:21:44;;;;;;;5.03;2.83;;;;;;;;;;5031868;28;20079;-73
2023/05/17 04:24:10;;;;;;;6.90;2.80;;;;;;;;;;5041863;28;20090;-74
2023/05/17 04:26:35;;;;;;;5.80;2.33;;;;;;;;;;5039642;28;20029;-73
2023/05/17 04:29:00;;;;;;;10.32;2.80;;;;;;;;;;5054987;28;20065;-73
2023/05/17 04:31:26;;;;;;;8.65;3.33;;;;;;;;;;5049242;28;20111;-74
2023/05/17 04:33:51;;;;;;;8.40;3.10;;;;;;;;;;5039279;28;20013;-76
2023/05/17 04:36:17;;;;;;;7.35;2.92;;;;;;;;;;5050909;28;20033;-74
2023/05/17 04:38:42;;;;;;;8.32;3.10;;;;;;;;;;5027479;28;20086;-74
2023/05/17 04:41:08;;;;;;;9.82;2.97;;;;;;;;;;5029736;28;20056;-74
2023/05/17 04:43:33;;;;;;;8.32;3.10;;;;;;;;;;5048241;28;20377;-74
2023/05/17 04:45:59;;;;;;;7.43;2.90;;;;;;;;;;5048466;28;20036;-74
2023/05/17 04:48:26;;;;;;;5.00;2.67;;;;;;;;;;5048159;28;20060;-73
2023/05/17 04:50:52;;;;;;;6.82;3.00;;;;;;;;;;5046719;28;20381;-73
2023/05/17 04:53:17;;;;;;;6.07;2.97;;;;;;;;;;5054868;28;20021;-74
2023/05/17 04:55:43;;;;;;;8.20;2.55;;;;;;;;;;5027802;28;20444;-74
2023/05/17 04:58:09;;;;;;;7.50;2.70;;;;;;;;;;5049214;28;20025;-74
2023/05/17 05:00:35;;;;;;;6.20;2.60;;;;;;;;;;5042937;28;20561;-74
2023/05/17 05:03:00;;;;;;;6.38;2.50;;;;;;;;;;5057400;28;20033;-74
2023/05/17 05:05:25;;;;;;;6.50;2.58;;;;;;;;;;5053025;28;20469;-74
2023/05/17 05:07:51;;;;;;;7.88;3.10;;;;;;;;;;5060673;28;20020;-74
2023/05/17 05:10:16;;;;;;;9.25;3.05;;;;;;;;;;5052728;28;20022;-74
2023/05/17 05:12:42;;;;;;;8.80;2.67;;;;;;;;;;5043767;28;20029;-74
2023/05/17 05:15:07;;;;;;;10.00;3.05;;;;;;;;;;5036166;28;20056;-74
2023/05/17 05:17:33;;;;;;;5.85;2.60;;;;;;;;;;5049160;28;20506;-74
2023/05/17 05:19:58;;;;;;;11.38;3.25;;;;;;;;;;5053669;28;20025;-74
2023/05/17 05:22:24;;;;;;;12.60;3.65;;;;;;;;;;5049832;28;20020;-74
2023/05/17 05:24:50;;;;;;;8.02;2.40;;;;;;;;;;5030264;28;20112;-74
2023/05/17 05:27:15;;;;;;;9.05;2.90;;;;;;;;;;5053763;28;20468;-74
2023/05/17 05:29:41;;;;;;;7.90;2.70;;;;;;;;;;5051915;28;20048;-74
2023/05/17 05:32:07;;;;;;;9.63;2.55;;;;;;;;;;5045762;28;20028;-74
2023/05/17 05:34:32;;;;;;;8.77;2.40;;;;;;;;;;5049856;28;20031;-73
2023/05/17 05:36:58;;;;;;;9.10;2.85;;;;;;;;;;5038414;28;20035;-73
2023/05/17 05:39:23;;;;;;;10.80;2.65;;;;;;;;;;5046375;28;20032;-74
2023/05/17 05:41:50;;;;;;;9.20;3.00;;;;;;;;;;5050582;28;20036;-74
2023/05/17 05:44:16;;;;;;;8.68;2.83;;;;;;;;;;5029734;28;20056;-75
2023/05/17 05:46:41;;;;;;;10.60;3.28;;;;;;;;;;5049175;28;20021;-75
2023/05/17 05:49:06;;;;;;;7.75;2.50;;;;;;;;;;5050127;28;20025;-74
2023/05/17 05:51:32;;;;;;;6.00;2.40;;;;;;;;;;5053406;28;20052;-73
2023/05/17 05:53:58;;;;;;;7.57;2.42;;;;;;;;;;5053275;28;20024;-74
2023/05/17 05:56:26;;;;;;;6.50;2.30;;;;;;;;;;5061624;28;20078;-74
2023/05/17 05:58:51;;;;;;;9.13;2.45;;;;;;;;;;5047566;28;20032;-73
2023/05/17 06:01:16;;;;;;;6.75;2.05;;;;;;;;;;5056032;28;20021;-74
2023/05/17 06:03:42;;;;;;;8.88;2.17;;;;;;;;;;5051446;28;20029;-73
2023/05/17 06:06:07;;;;;;;7.63;2.10;;;;;;;;;;5051411;28;20079;-73
2023/05/17 06:08:32;;;;;;;8.70;2.45;;;;;;;;;;5055147;28;20021;-74
2023/05/17 06:10:58;;;;;;;8.20;1.85;;;;;;;;;;5058876;28;20037;-73
2023/05/17 06:13:23;;;;;;;8.63;2.22;;;;;;;;;;5026725;28;20017;-75
2023/05/17 06:15:49;;;;;;;5.85;1.98;;;;;;;;;;5042345;28;20029;-74
2023/05/17 06:18:15;;;;;;;10.38;2.50;;;;;;;;;;5050756;28;20017;-73
2023/05/17 06:20:40;;;;;;;10.23;2.30;;;;;;;;;;5032760;28;20381;-73
2023/05/17 06:23:05;;;;;;;7.78;1.83;;;;;;;;;;5050059;28;20039;-76
2023/05/17 06:25:31;;;;;;;8.77;1.67;;;;;;;;;;5032856;28;20025;-73
2023/05/17 06:27:56;;;;;;;6.65;1.40;;;;;;;;;;5054388;28;20078;-74
2023/05/17 06:30:22;;;;;;;6.88;1.73;;;;;;;;;;5025209;28;20028;-73
2023/05/17 06:32:47;;;;;;;7.18;1.65;;;;;;;;;;5054712;28;20148;-73
2023/05/17 06:35:12;;;;;;;10.65;2.13;;;;;;;;;;5032881;28;20529;-73
2023/05/17 06:37:38;;;;;;;8.77;1.25;;;;;;;;;;5038897;28;20469;-74
2023/05/17 06:40:05;;;;;;;9.27;1.67;;;;;;;;;;5043403;28;20612;-74
2023/05/17 06:42:31;;;;;;;12.63;1.80;;;;;;;;;;5042290;28;20025;-75
2023/05/17 06:44:57;;;;;;;8.07;1.52;;;;;;;;;;5058960;28;20476;-74
2023/05/17 06:47:23;;;;;;;7.65;1.45;;;;;;;;;;5050191;28;20021;-74
2023/05/17 06:49:48;;;;;;;6.03;1.55;;;;;;;;;;5027592;28;20034;-74
2023/05/17 06:52:14;;;;;;;8.75;1.55;;;;;;;;;;5052529;28;20017;-75
2023/05/17 06:54:39;;;;;;;8.15;1.80;;;;;;;;;;5050422;28;20102;-74
2023/05/17 06:57:05;;;;;;;11.02;1.98;;;;;;;;;;5052111;28;20029;-74
2023/05/17 06:59:31;;;;;;;7.05;1.48;;;;;;;;;;5045110;28;20231;-74
2023/05/17 07:01:59;;;;;;;10.98;1.60;;;;;;;;;;5051609;28;20025;-74
2023/05/17 07:04:25;;;;;;;9.93;1.50;;;;;;;;;;5049034;28;20108;-74
2023/05/17 07:06:50;;;;;;;10.30;1.42;;;;;;;;;;5028761;28;20111;-73
2023/05/17 07:09:16;;;;;;;10.27;1.80;;;;;;;;;;5045360;28;20159;-74
2023/05/17 07:11:42;;;;;;;8.75;1.48;;;;;;;;;;5031920;28;20021;-75
2023/05/17 07:14:07;;;;;;;8.95;1.73;;;;;;;;;;5048871;28;20035;-74
2023/05/17 07:16:33;;;;;;;12.13;2.45;;;;;;;;;;5023050;28;20167;-74
2023/05/17 07:18:58;;;;;;;8.43;1.85;;;;;;;;;;5027684;28;20058;-76
2023/05/17 07:21:23;;;;;;;7.95;1.27;;;;;;;;;;5043572;28;20032;-74
2023/05/17 07:23:49;;;;;;;8.63;1.50;;;;;;;;;;5043752;28;20043;-74
2023/05/17 07:26:18;;;;;;;7.78;1.70;;;;;;;;;;5029522;28;20162;-74
2023/05/17 07:28:43;;;;;;;7.32;1.27;;;;;;;;;;5042490;28;20028;-73
2023/05/17 07:31:09;;;;;;;6.90;1.65;;;;;;;;;;5028029;28;20440;-74
2023/05/17 07:33:36;;;;;;;6.90;1.45;;;;;;;;;;5048357;28;20035;-74
2023/05/17 07:36:02;;;;;;;8.60;1.45;;;;;;;;;;5046462;28;20075;-74
2023/05/17 07:38:27;;;;;;;7.18;1.23;;;;;;;;;;5051926;28;20024;-74
2023/05/17 07:40:52;;;;;;;6.82;1.60;;;;;;;;;;5029101;28;20021;-74
2023/05/17 07:43:18;;;;;;;7.60;1.42;;;;;;;;;;5022573;28;20112;-75
2023/05/17 07:45:43;;;;;;;5.93;1.40;;;;;;;;;;5044650;28;20082;-74
2023/05/17 07:48:09;;;;;;;5.05;1.02;;;;;;;;;;5029340;28;20547;-75
2023/05/17 07:50:34;;;;;;;7.65;1.35;;;;;;;;;;5047027;28;20638;-72
2023/05/17 07:53:00;;;;;;;10.30;1.50;;;;;;;;;;5045766;28;20052;-72
2023/05/17 07:55:25;;;;;;;7.88;1.63;;;;;;;;;;5055856;28;20032;-73
2023/05/17 07:57:51;;;;;;;9.80;1.63;;;;;;;;;;5025835;28;20037;-73
2023/05/17 08:00:18;;;;;;;6.60;1.20;;;;;;;;;;5040993;28;20112;-74
2023/05/17 08:02:43;;;;;;;6.50;1.70;;;;;;;;;;5044274;28;20083;-73
2023/05/17 08:05:09;;;;;;;5.30;1.00;;;;;;;;;;5046632;28;20029;-73
2023/05/17 08:07:34;;;;;;;6.95;1.17;;;;;;;;;;5030454;28;20021;-73
2023/05/17 08:09:59;;;;;;;9.32;1.70;;;;;;;;;;5042734;28;20467;-73
2023/05/17 08:12:25;;;;;;;4.63;1.17;;;;;;;;;;5045566;28;20035;-74
2023/05/17 08:14:50;;;;;;;6.95;1.42;;;;;;;;;;5040568;28;20025;-74
2023/05/17 08:17:16;;;;;;;8.05;1.40;;;;;;;;;;5056910;28;20123;-73
2023/05/17 08:19:41;;;;;;;4.53;1.40;;;;;;;;;;5029796;28;20392;-73
2023/05/17 08:22:06;;;;;;;4.05;1.05;;;;;;;;;;5039986;28;20495;-72
2023/05/17 08:24:32;;;;;;;6.70;1.55;;;;;;;;;;5032546;28;20025;-73
2023/05/17 08:26:57;;;;;;;8.70;1.00;;;;;;;;;;5031591;28;20036;-75
2023/05/17 08:29:23;;;;;;;6.07;1.10;;;;;;;;;;5047756;28;20025;-73
2023/05/17 08:31:48;;;;;;;7.57;1.38;;;;;;;;;;5028149;28;20055;-73
2023/05/17 08:34:13;;;;;;;4.55;1.17;;;;;;;;;;5042624;28;20108;-73
2023/05/17 08:36:39;;;;;;;6.18;1.20;;;;;;;;;;5043586;28;20033;-74
2023/05/17 08:39:04;;;;;;;5.13;1.08;;;;;;;;;;5044793;28;20051;-73
2023/05/17 08:41:30;;;;;;;5.45;1.27;;;;;;;;;;5032054;28;20452;-73
2023/05/17 08:43:55;;;;;;;6.68;1.30;;;;;;;;;;5039140;28;20103;-73
2023/05/17 08:46:22;;;;;;;5.72;1.10;;;;;;;;;;5033292;28;20020;-74
2023/05/17 08:48:52;;;;;;;4.82;1.20;;;;;;;;;;5028233;28;20121;-74
2023/05/17 08:51:18;;;;;;;3.13;0.88;;;;;;;;;;5026885;28;20734;-74
2023/05/17 08:53:46;;;;;;;9.13;1.45;;;;;;;;;;5025306;28;20033;-76
2023/05/17 08:56:14;;;;;;;5.60;1.05;;;;;;;;;;5022229;28;20060;-73
2023/05/17 08:58:42;;;;;;;5.00;1.15;;;;;;;;;;5006938;28;20037;-73
2023/05/17 09:01:08;;;;;;;6.32;1.40;;;;;;;;;;5028148;28;20033;-74
2023/05/17 09:03:34;;;;;;;7.25;1.13;;;;;;;;;;5027262;28;20482;-73
2023/05/17 09:06:00;;;;;;;5.35;1.15;;;;;;;;;;5041213;28;20033;-73
2023/05/17 09:08:27;;;;;;;5.45;1.33;;;;;;;;;;5025634;28;20035;-75
2023/05/17 09:10:53;;;;;;;7.07;1.30;;;;;;;;;;5020469;28;20021;-73
2023/05/17 09:13:18;;;;;;;5.18;1.25;;;;;;;;;;5009958;28;20091;-73
2023/05/17 09:15:46;;;;;;;5.05;1.23;;;;;;;;;;5030149;28;20029;-75
2023/05/17 09:18:12;;;;;;;8.60;1.20;;;;;;;;;;5024237;28;20544;-74
2023/05/17 09:20:39;;;;;;;6.07;1.73;;;;;;;;;;5028401;28;20056;-74
2023/05/17 09:23:08;;;;;;;3.53;1.35;;;;;;;;;;5012760;28;20057;-74
2023/05/17 09:25:34;;;;;;;7.05;1.27;;;;;;;;;;5035797;28;20104;-73
2023/05/17 09:28:01;;;;;;;8.82;1.60;;;;;;;;;;5022300;28;20112;-73
2023/05/17 09:30:32;;;;;;;5.88;1.25;;;;;;;;;;5021435;28;20029;-73
2023/05/17 09:33:03;;;;;;;5.15;1.00;;;;;;;;;;5026131;28;20034;-73
2023/05/17 09:35:30;;;;;;;6.03;1.10;;;;;;;;;;5031307;28;20032;-73
2023/05/17 09:38:05;;;;;;;5.10;1.00;;;;;;;;;;5012532;28;20029;-73
2023/05/17 09:40:30;;;;;;;3.33;1.05;;;;;;;;;;5030065;28;20029;-74
2023/05/17 09:42:58;;;;;;;4.05;1.17;;;;;;;;;;5030206;28;20055;-74
2023/05/17 09:45:23;;;;;;;6.60;1.10;;;;;;;;;;5031653;28;20116;-74
2023/05/17 09:47:50;;;;;;;3.88;1.00;;;;;;;;;;5029742;28;20476;-73
2023/05/17 09:50:17;;;;;;;4.72;1.20;;;;;;;;;;5052885;28;20404;-73
2023/05/17 09:52:43;;;;;;;4.18;0.80;;;;;;;;;;5033515;28;20542;-73
2023/05/17 09:55:10;;;;;;;5.40;1.25;;;;;;;;;;5050321;28;20117;-74
2023/05/17 09:57:37;;;;;;;5.65;1.00;;;;;;;;;;5032949;28;20183;-73
2023/05/17 10:00:08;;;;;;;3.35;1.10;;;;;;;;;;5043656;28;20025;-75
2023/05/17 10:02:36;;;;;;;5.00;1.10;;;;;;;;;;5035039;28;20025;-73
2023/05/17 10:05:06;;;;;;;4.72;1.15;;;;;;;;;;5044236;28;20469;-74
2023/05/17 10:07:33;;;;;;;4.90;1.40;;;;;;;;;;5048494;28;20020;-74
2023/05/17 10:09:59;;;;;;;3.45;1.10;;;;;;;;;;5048770;28;20451;-73
2023/05/17 10:12:28;;;;;;;5.35;1.20;;;;;;;;;;5043851;28;20037;-73
2023/05/17 10:14:55;;;;;;;4.43;0.90;;;;;;;;;;5045235;28;20114;-74
2023/05/17 10:17:20;;;;;;;5.20;1.20;;;;;;;;;;5052423;28;20025;-75
2023/05/17 10:19:46;;;;;;;6.07;1.48;;;;;;;;;;5045939;28;20044;-73
2023/05/17 10:22:13;;;;;;;4.63;1.20;;;;;;;;;;5049612;28;20108;-75
2023/05/17 10:24:39;;;;;;;6.82;1.30;;;;;;;;;;5048649;28;20037;-74
2023/05/17 10:27:06;;;;;;;5.50;1.27;;;;;;;;;;5049052;28;20039;-74
2023/05/17 10:29:33;;;;;;;4.57;1.27;;;;;;;;;;5021667;28;20398;-75
2023/05/17 10:32:02;;;;;;;6.05;1.38;;;;;;;;;;5025142;28;20036;-74
2023/05/17 10:34:29;;;;;;;6.13;1.73;;;;;;;;;;5048348;28;20032;-74
2023/05/17 10:36:56;;;;;;;3.58;1.10;;;;;;;;;;5034004;28;20468;-74
2023/05/17 10:39:22;;;;;;;1.88;0.98;;;;;;;;;;5036221;28;20024;-75
2023/05/17 10:41:51;;;;;;;4.18;1.25;;;;;;;;;;5047593;28;20091;-74
2023/05/17 10:44:16;;;;;;;5.25;1.20;;;;;;;;;;5038946;28;20108;-75
2023/05/17 10:47:02;;;;;;;6.07;1.33;;;;;;;;;;5045824;28;20108;-74
2023/05/17 10:49:30;;;;;;;2.90;0.90;;;;;;;;;;5047121;28;20029;-76
2023/05/17 10:51:56;;;;;;;3.83;1.00;;;;;;;;;;5040632;28;20152;-75
2023/05/17 10:54:33;;;;;;;3.65;1.15;;;;;;;;;;5049009;28;20021;-75
2023/05/17 10:57:03;;;;;;;4.57;1.20;;;;;;;;;;5027587;28;20492;-74
2023/05/17 10:59:30;;;;;;;2.45;1.13;;;;;;;;;;5033384;28;20394;-74
2023/05/17 11:02:03;;;;;;;3.45;1.13;;;;;;;;;;5045219;28;20059;-74
2023/05/17 11:04:40;;;;;;;2.63;1.10;;;;;;;;;;5030663;28;20029;-74
2023/05/17 11:07:22;;;;;;;5.03;1.10;;;;;;;;;;5036170;28;20029;-75
2023/05/17 11:10:12;;;;;;;3.85;1.17;;;;;;;;;;5046053;28;20024;-74
2023/05/17 11:12:40;;;;;;;7.00;1.42;;;;;;;;;;5044240;28;20036;-73
2023/05/17 11:15:14;;;;;;;4.18;0.95;;;;;;;;;;5028586;28;20131;-74
2023/05/17 11:17:45;;;;;;;4.90;1.20;;;;;;;;;;5051779;28;20031;-74
2023/05/17 11:20:13;;;;;;;2.22;0.98;;;;;;;;;;5046791;28;20465;-74
2023/05/17 11:23:06;;;;;;;8.15;1.70;;;;;;;;;;5045827;28;20037;-74
2023/05/17 11:25:36;;;;;;;2.95;0.85;;;;;;;;;;5048896;28;20024;-74
2023/05/17 11:28:16;;;;;;;6.93;1.20;;;;;;;;;;5047783;28;20037;-74
2023/05/17 11:30:50;;;;;;;26.67;1.63;;;;;;;;;;5047420;28;20499;-75
2023/05/17 11:33:16;;;;;;;5.22;1.10;;;;;;;;;;5050696;28;20025;-74
2023/05/17 11:35:43;;;;;;;1.98;0.80;;;;;;;;;;5035709;28;20495;-74
2023/05/17 11:38:23;;;;;;;3.45;0.90;;;;;;;;;;5034308;28;20029;-76
2023/05/17 11:40:52;;;;;;;4.93;0.80;;;;;;;;;;5034857;28;20176;-74
2023/05/17 11:43:22;;;;;;;5.47;1.00;;;;;;;;;;5045520;28;20488;-74
2023/05/17 11:45:53;;;;;;;3.65;0.95;;;;;;;;;;5053182;28;20576;-75
2023/05/17 11:48:24;;;;;;;4.28;1.02;;;;;;;;;;5023756;28;20021;-74
2023/05/17 11:50:52;;;;;;;5.05;1.20;;;;;;;;;;5040715;28;20033;-74
2023/05/17 11:53:18;;;;;;;5.72;1.17;;;;;;;;;;5047343;28;20080;-74
2023/05/17 11:55:46;;;;;;;3.90;0.82;;;;;;;;;;5047052;28;20465;-74
2023/05/17 11:58:14;;;;;;;2.53;0.80;;;;;;;;;;5044637;28;20031;-75
2023/05/17 12:00:40;;;;;;;4.43;1.00;;;;;;;;;;5043172;28;20033;-76
2023/05/17 12:03:25;;;;;;;8.40;1.30;;;;;;;;;;5045037;28;20112;-74
2023/05/17 12:06:03;;;;;;;5.00;0.90;;;;;;;;;;5042524;28;20036;-74
2023/05/17 12:08:29;;;;;;;3.40;0.80;;;;;;;;;;5025950;28;20524;-74
2023/05/17 12:10:58;;;;;;;2.75;0.70;;;;;;;;;;5038460;28;20036;-74
2023/05/17 12:13:27;;;;;;;4.47;0.73;;;;;;;;;;5043376;28;20036;-74
2023/05/17 12:15:56;;;;;;;3.47;0.70;;;;;;;;;;5046804;28;20033;-74
2023/05/17 12:18:22;;;;;;;4.05;0.90;;;;;;;;;;5046753;28;20033;-74
2023/05/17 12:20:54;;;;;;;3.95;1.10;;;;;;;;;;5047123;28;20488;-76
2023/05/17 12:23:28;;;;;;;3.53;0.70;;;;;;;;;;5045655;28;20533;-74
2023/05/17 12:26:23;;;;;;;3.88;0.90;;;;;;;;;;5052434;28;20040;-75
2023/05/17 12:28:58;;;;;;;4.18;0.95;;;;;;;;;;5029215;28;20392;-74
2023/05/17 12:31:28;;;;;;;5.30;1.08;;;;;;;;;;5048622;28;20031;-74
2023/05/17 12:33:55;;;;;;;5.40;0.90;;;;;;;;;;5042433;28;20036;-74
2023/05/17 12:36:21;;;;;;;5.63;1.00;;;;;;;;;;5050111;28;20040;-74
2023/05/17 12:38:47;;;;;;;5.03;1.15;;;;;;;;;;5036190;28;20507;-74
2023/05/17 12:41:14;;;;;;;3.90;0.90;;;;;;;;;;5045433;28;20036;-74
2023/05/17 12:43:40;;;;;;;3.22;0.90;;;;;;;;;;5035203;28;20473;-74
2023/05/17 12:46:06;;;;;;;3.65;0.80;;;;;;;;;;5047745;28;20089;-75
2023/05/17 12:48:33;;;;;;;4.88;1.02;;;;;;;;;;5047425;28;20087;-74
2023/05/17 12:51:13;;;;;;;3.33;0.88;;;;;;;;;;5029456;28;20099;-74
2023/05/17 12:53:40;;;;;;;4.15;1.10;;;;;;;;;;5027751;28;20099;-76
2023/05/17 12:56:07;;;;;;;4.47;1.20;;;;;;;;;;5046538;28;20052;-75
2023/05/17 12:58:32;;;;;;;4.57;1.02;;;;;;;;;;5052116;28;20087;-74
2023/05/17 13:01:02;;;;;;;3.33;1.13;;;;;;;;;;5036409;28;20013;-73
2023/05/17 13:03:28;;;;;;;3.50;1.23;;;;;;;;;;5038392;28;20091;-74
2023/05/17 13:06:01;;;;;;;5.60;0.90;;;;;;;;;;5033794;28;20533;-74
2023/05/17 13:08:27;;;;;;;4.72;1.27;;;;;;;;;;5040591;28;20481;-74
2023/05/17 13:10:52;;;;;;;6.10;1.33;;;;;;;;;;5044239;28;20091;-74
2023/05/17 13:13:19;;;;;;;4.85;1.20;;;;;;;;;;5051951;28;20380;-74
2023/05/17 13:15:48;;;;;;;3.83;1.00;;;;;;;;;;5045492;28;20025;-76
2023/05/17 13:18:19;;;;;;;3.67;0.88;;;;;;;;;;5045076;28;20029;-74
2023/05/17 13:20:44;;;;;;;4.35;1.20;;;;;;;;;;5046427;28;20033;-74
2023/05/17 13:23:10;;;;;;;5.72;1.08;;;;;;;;;;5025431;28;20021;-75
2023/05/17 13:25:38;;;;;;;4.40;1.02;;;;;;;;;;5048757;28;20029;-74
2023/05/17 13:28:03;;;;;;;4.72;1.00;;;;;;;;;;5052468;28;20028;-74
2023/05/17 13:30:29;;;;;;;3.22;0.80;;;;;;;;;;5034834;28;20571;-74
2023/05/17 13:32:55;;;;;;;5.85;1.10;;;;;;;;;;5049737;28;20029;-74
2023/05/17 13:35:20;;;;;;;5.75;1.30;;;;;;;;;;5032691;28;20071;-74
2023/05/17 13:37:45;;;;;;;4.30;1.23;;;;;;;;;;5050909;28;20037;-74
2023/05/17 13:40:11;;;;;;;5.32;1.27;;;;;;;;;;5048460;28;20036;-74
2023/05/17 13:42:37;;;;;;;5.70;0.98;;;;;;;;;;5049361;28;20619;-74
2023/05/17 13:45:02;;;;;;;3.15;0.90;;;;;;;;;;5026370;28;20048;-75
2023/05/17 13:47:31;;;;;;;2.47;0.90;;;;;;;;;;5045475;28;20025;-74
2023/05/17 13:49:59;;;;;;;5.63;1.20;;;;;;;;;;5045361;28;20020;-73
2023/05/17 13:52:24;;;;;;;5.18;1.33;;;;;;;;;;5054014;28;20037;-73
2023/05/17 13:54:50;;;;;;;4.38;0.90;;;;;;;;;;5048511;28;20370;-73
2023/05/17 13:57:15;;;;;;;5.50;0.90;;;;;;;;;;5033941;28;20115;-74
2023/05/17 13:59:42;;;;;;;5.18;1.20;;;;;;;;;;5028083;28;20028;-75
2023/05/17 14:02:08;;;;;;;5.05;1.00;;;;;;;;;;5030916;28;20437;-74
2023/05/17 14:04:33;;;;;;;3.38;0.95;;;;;;;;;;5054149;28;20096;-74
2023/05/17 14:07:00;;;;;;;3.88;1.10;;;;;;;;;;5050334;28;20021;-74
2023/05/17 14:09:26;;;;;;;4.40;1.00;;;;;;;;;;5052810;28;20033;-74
2023/05/17 14:11:51;;;;;;;4.95;1.00;;;;;;;;;;5034177;28;20036;-74
2023/05/17 14:14:16;;;;;;;4.40;1.13;;;;;;;;;;5047044;28;20120;-74
2023/05/17 14:16:42;;;;;;;4.57;1.10;;;;;;;;;;5042166;28;20469;-74
2023/05/17 14:19:07;;;;;;;2.28;0.75;;;;;;;;;;5045029;28;20056;-74
2023/05/17 14:21:32;;;;;;;5.32;1.20;;;;;;;;;;5027045;28;20052;-74
2023/05/17 14:23:58;;;;;;;4.60;1.15;;;;;;;;;;5031834;28;20494;-74
2023/05/17 14:26:23;;;;;;;4.35;1.23;;;;;;;;;;5053887;28;20037;-73
2023/05/17 14:28:49;;;;;;;4.05;0.98;;;;;;;;;;5047847;28;20100;-74
2023/05/17 14:31:14;;;;;;;3.75;1.00;;;;;;;;;;5043883;28;20033;-74
2023/05/17 14:33:40;;;;;;;3.40;0.95;;;;;;;;;;5032162;28;20025;-77
2023/05/17 14:36:05;;;;;;;4.35;1.00;;;;;;;;;;5049152;28;20103;-74
2023/05/17 14:38:30;;;;;;;4.18;1.00;;;;;;;;;;5049162;28;20025;-76
2023/05/17 14:40:57;;;;;;;3.72;1.00;;;;;;;;;;5024198;28;20025;-76
2023/05/17 14:43:23;;;;;;;5.30;1.23;;;;;;;;;;5046929;28;20024;-76